Time;durP1;ratioP1;P1;durP2;ratioP2;P2;SDS_P1;SDS_P2;PMS_P1;PMS_P2;Temp;Humidity;BMP_temperature;BMP_pressure;BME280_temperature;BME280_humidity;BME280_pressure;Samples;Min_cycle;Max_cycle;Signal;HPM_P1;HPM_P2
2023/05/24 00:00:47;;;;;;;15.65;5.55;;;;;;;;;;6275170;22;20012;-81
2023/05/24 00:03:14;;;;;;;15.98;5.57;;;;;;;;;;6274779;22;20020;-82
2023/05/24 00:05:40;;;;;;;19.30;6.75;;;;;;;;;;6274962;22;20016;-82
2023/05/24 00:08:06;;;;;;;20.65;6.18;;;;;;;;;;6249542;22;20019;-82
2023/05/24 00:10:32;;;;;;;14.02;6.82;;;;;;;;;;6249326;22;20019;-82
2023/05/24 00:12:58;;;;;;;17.35;5.45;;;;;;;;;;6276762;22;20071;-82
2023/05/24 00:15:24;;;;;;;22.23;5.78;;;;;;;;;;6276882;22;20028;-82
2023/05/24 00:17:50;;;;;;;12.25;4.80;;;;;;;;;;6276862;22;20353;-82
2023/05/24 00:20:19;;;;;;;20.98;6.07;;;;;;;;;;6226284;22;20394;-82
2023/05/24 00:22:46;;;;;;;15.07;5.10;;;;;;;;;;6251504;22;20016;-82
2023/05/24 00:25:12;;;;;;;21.75;6.03;;;;;;;;;;6276916;22;20016;-82
2023/05/24 00:27:38;;;;;;;22.08;6.80;;;;;;;;;;6226127;22;20024;-82
2023/05/24 00:30:05;;;;;;;18.67;5.38;;;;;;;;;;6276877;22;20007;-82
2023/05/24 00:32:31;;;;;;;16.58;6.20;;;;;;;;;;6251267;22;20444;-82
2023/05/24 00:34:57;;;;;;;17.05;4.78;;;;;;;;;;6251205;22;20471;-81
2023/05/24 00:37:24;;;;;;;23.63;6.68;;;;;;;;;;6251502;22;20015;-81
2023/05/24 00:39:50;;;;;;;16.05;5.72;;;;;;;;;;6276988;22;20016;-82
2023/05/24 00:42:16;;;;;;;12.77;5.47;;;;;;;;;;6251268;22;20069;-81
2023/05/24 00:44:43;;;;;;;20.25;5.57;;;;;;;;;;6276676;22;20020;-82
2023/05/24 00:47:09;;;;;;;22.13;5.65;;;;;;;;;;6276780;22;20012;-81
2023/05/24 00:49:35;;;;;;;20.23;6.05;;;;;;;;;;6276450;22;20020;-83
2023/05/24 00:52:01;;;;;;;27.25;8.02;;;;;;;;;;6276645;22;20016;-82
2023/05/24 00:54:28;;;;;;;27.50;5.40;;;;;;;;;;6251024;22;20065;-82
2023/05/24 00:56:55;;;;;;;22.65;4.82;;;8.90;99.90;;;;;;6250968;22;20018;-82
2023/05/24 00:59:22;;;;;;;18.98;6.72;;;8.90;99.90;;;;;;6276998;22;20403;-82
2023/05/24 01:01:48;;;;;;;17.67;5.20;;;;;;;;;;6276660;22;20085;-82
2023/05/24 01:04:16;;;;;;;12.20;4.70;;;;;;;;;;6276447;22;20020;-82
2023/05/24 01:07:02;;;;;;;15.90;5.22;;;;;;;;;;6276473;22;20012;-82
2023/05/24 01:09:44;;;;;;;22.17;4.97;;;8.90;99.90;;;;;;6251040;22;20015;-81
2023/05/24 01:12:13;;;;;;;15.75;5.63;;;;;;;;;;6276985;22;20026;-82
2023/05/24 01:15:00;;;;;;;19.42;5.22;;;;;;;;;;6276534;22;20030;-81
2023/05/24 01:17:30;;;;;;;20.30;5.82;;;;;;;;;;6276015;22;20012;-82
2023/05/24 01:20:00;;;;;;;18.73;5.18;;;;;;;;;;6251082;22;20046;-82
2023/05/24 01:22:29;;;;;;;15.43;5.50;;;;;;;;;;6276060;22;20402;-82
2023/05/24 01:25:19;;;;;;;15.25;5.35;;;;;;;;;;6275978;22;20023;-81
2023/05/24 01:27:45;;;;;;;18.77;4.38;;;;;;;;;;6250155;22;20452;-81
2023/05/24 01:30:12;;;;;;;15.20;4.85;;;;;;;;;;6250946;22;20023;-82
2023/05/24 01:32:38;;;;;;;14.90;5.05;;;;;;;;;;6276142;22;20086;-82
2023/05/24 01:35:04;;;;;;;11.32;4.65;;;;;;;;;;6276147;22;20078;-82
2023/05/24 01:37:30;;;;;;;18.73;5.72;;;;;;;;;;6276105;22;20015;-81
2023/05/24 01:39:57;;;;;;;15.07;4.40;;;;;;;;;;6250710;22;20346;-82
2023/05/24 01:42:23;;;;;;;21.02;6.00;;;;;;;;;;6250870;22;20349;-82
2023/05/24 01:45:13;;;;;;;22.23;4.85;;;9.40;99.90;;;;;;6276052;22;20019;-82
2023/05/24 01:47:42;;;;;;;24.42;5.20;;;;;;;;;;6276310;22;20105;-82
2023/05/24 01:50:19;;;;;;;17.30;5.45;;;9.30;99.90;;;;;;6275762;22;20023;-82
2023/05/24 01:52:45;;;;;;;20.13;5.60;;;;;;;;;;6276080;22;20073;-82
2023/05/24 01:55:15;;;;;;;20.85;4.75;;;9.40;99.90;;;;;;6275829;22;20512;-82
2023/05/24 01:57:45;;;;;;;25.08;5.43;;;9.70;99.90;;;;;;6275956;22;20012;-81
2023/05/24 02:00:13;;;;;;;15.77;4.30;;;;;;;;;;6250415;22;20019;-82
2023/05/24 02:02:42;;;;;;;21.92;5.05;;;;;;;;;;6277657;22;20012;-82
2023/05/24 02:05:10;;;;;;;30.10;6.07;;;;;;;;;;6275729;22;20015;-82
2023/05/24 02:07:36;;;;;;;14.40;4.82;;;;;;;;;;6250375;22;20023;-82
2023/05/24 02:10:02;;;;;;;20.17;5.07;;;;;;;;;;6275803;22;20015;-82
2023/05/24 02:12:28;;;;;;;13.13;4.90;;;;;;;;;;6275797;22;20015;-82
2023/05/24 02:14:56;;;;;;;18.30;4.20;;;;;;;;;;6275621;22;20015;-82
2023/05/24 02:17:24;;;;;;;29.35;5.80;;;;;;;;;;6250528;22;20015;-81
2023/05/24 02:19:50;;;;;;;18.17;4.60;;;;;;;;;;6275819;22;20015;-82
2023/05/24 02:22:21;;;;;;;18.65;4.60;;;;;;;;;;6277466;22;20011;-82
2023/05/24 02:24:47;;;;;;;28.02;5.75;;;;;;;;;;6275884;22;20023;-82
2023/05/24 02:27:13;;;;;;;20.33;5.07;;;;;;;;;;6275655;22;20012;-83
2023/05/24 02:29:40;;;;;;;22.45;4.97;;;;;;;;;;6275712;22;20023;-82
2023/05/24 02:32:06;;;;;;;24.52;4.53;;;;;;;;;;6275580;22;20023;-82
2023/05/24 02:34:33;;;;;;;15.18;4.45;;;;;;;;;;6250341;22;20016;-82
2023/05/24 02:36:59;;;;;;;14.45;5.13;;;;;;;;;;6250047;22;20016;-82
2023/05/24 02:39:25;;;;;;;20.67;4.88;;;;;;;;;;6275567;22;20092;-82
2023/05/24 02:41:51;;;;;;;15.10;5.43;;;;;;;;;;6250006;22;20012;-82
2023/05/24 02:44:17;;;;;;;14.73;3.90;;;;;;;;;;6275507;22;20098;-82
2023/05/24 02:46:43;;;;;;;19.83;4.35;;;;;;;;;;6250142;22;20023;-82
2023/05/24 02:49:09;;;;;;;19.27;4.78;;;;;;;;;;6275402;22;20069;-81
2023/05/24 02:51:38;;;;;;;24.90;5.57;;;;;;;;;;6275261;22;20186;-82
2023/05/24 02:54:05;;;;;;;13.30;4.20;;;;;;;;;;6275298;22;20055;-82
2023/05/24 02:56:31;;;;;;;15.98;4.55;;;;;;;;;;6249802;22;20019;-82
2023/05/24 02:58:57;;;;;;;14.10;5.00;;;;;;;;;;6275726;22;20022;-81
2023/05/24 03:01:23;;;;;;;13.95;4.45;;;;;;;;;;6275415;22;20016;-82
2023/05/24 03:03:49;;;;;;;18.27;4.28;;;;;;;;;;6250036;22;20016;-83
2023/05/24 03:06:15;;;;;;;25.60;5.90;;;;;;;;;;6250204;22;20062;-82
2023/05/24 03:08:41;;;;;;;20.27;4.70;;;;;;;;;;6275585;22;20016;-82
2023/05/24 03:11:07;;;;;;;17.98;5.45;;;;;;;;;;6275137;22;20157;-82
2023/05/24 03:13:33;;;;;;;13.10;4.95;;;;;;;;;;6249826;22;20015;-82
2023/05/24 03:15:59;;;;;;;13.88;4.53;;;;;;;;;;6275181;22;20016;-82
2023/05/24 03:18:25;;;;;;;10.98;5.22;;;;;;;;;;6275200;22;20069;-82
2023/05/24 03:20:51;;;;;;;11.85;4.97;;;;;;;;;;6274951;22;20020;-82
2023/05/24 03:23:17;;;;;;;16.95;3.83;;;;;;;;;;6249484;22;20326;-82
2023/05/24 03:25:43;;;;;;;14.63;4.18;;;;;;;;;;6249540;22;20398;-83
2023/05/24 03:28:09;;;;;;;20.75;5.80;;;;;;;;;;6275114;22;20016;-82
2023/05/24 03:30:35;;;;;;;17.67;4.72;;;;;;;;;;6249468;22;20012;-82
2023/05/24 03:33:02;;;;;;;24.55;5.70;;;;;;;;;;6274810;22;20027;-82
2023/05/24 03:35:28;;;;;;;15.02;4.22;;;;;;;;;;6274628;22;20019;-82
2023/05/24 03:37:54;;;;;;;12.43;3.83;;;;;;;;;;6275251;22;20518;-82
2023/05/24 03:40:20;;;;;;;14.10;5.20;;;;;;;;;;6276549;22;20527;-82
2023/05/24 03:42:46;;;;;;;17.45;4.50;;;;;;;;;;6250922;22;20012;-83
2023/05/24 03:45:12;;;;;;;20.08;5.75;;;;;;;;;;6275376;22;20026;-81
2023/05/24 03:47:38;;;;;;;10.50;4.35;;;;;;;;;;6275312;22;20019;-82
2023/05/24 03:50:04;;;;;;;17.05;3.72;;;;;;;;;;6275147;22;20030;-82
2023/05/24 03:52:30;;;;;;;14.38;3.50;;;;;;;;;;6275067;22;20047;-81
2023/05/24 03:54:56;;;;;;;14.18;4.30;;;;;;;;;;6275011;22;20027;-82
2023/05/24 03:57:22;;;;;;;15.98;4.57;;;;;;;;;;6249614;22;20027;-82
2023/05/24 03:59:48;;;;;;;10.95;4.15;;;;;;;;;;6249422;22;20019;-82
2023/05/24 04:02:14;;;;;;;9.80;3.90;;;;;;;;;;6274995;22;20012;-82
2023/05/24 04:04:41;;;;;;;9.77;4.15;;;;;;;;;;6274703;22;20440;-82
2023/05/24 04:07:10;;;;;;;31.20;6.00;;;;;;;;;;6249558;22;20034;-82
2023/05/24 04:09:36;;;;;;;15.63;4.50;;;;;;;;;;6249277;22;20019;-82
2023/05/24 04:12:02;;;;;;;11.43;3.92;;;;;;;;;;6274660;22;20410;-82
2023/05/24 04:14:28;;;;;;;16.60;4.82;;;;;;;;;;6249053;22;20051;-82
2023/05/24 04:16:56;;;;;;;26.10;4.93;;;;;;;;;;6274799;22;20020;-81
2023/05/24 04:19:22;;;;;;;18.00;6.05;;;;;;;;;;6249365;22;20467;-82
2023/05/24 04:21:48;;;;;;;17.00;4.07;;;10.00;99.90;;;;;;6274756;22;20449;-81
2023/05/24 04:24:15;;;;;;;17.95;5.10;;;;;;;;;;6274886;22;20387;-82
2023/05/24 04:26:41;;;;;;;15.90;4.03;;;;;;;;;;6274831;22;20098;-83
2023/05/24 04:29:07;;;;;;;17.00;4.95;;;;;;;;;;6249553;22;20016;-82
2023/05/24 04:31:33;;;;;;;14.52;4.72;;;;;;;;;;6275167;22;20022;-82
2023/05/24 04:33:59;;;;;;;19.88;4.40;;;;;;;;;;6249026;22;20012;-82
2023/05/24 04:36:27;;;;;;;20.08;5.10;;;;;;;;;;6274655;22;20074;-82
2023/05/24 04:38:55;;;;;;;21.92;5.38;;;;;;;;;;6274668;22;20046;-83
2023/05/24 04:41:21;;;;;;;14.85;4.50;;;;;;;;;;6274661;22;20070;-81
2023/05/24 04:43:47;;;;;;;15.45;3.92;;;;;;;;;;6274594;22;20012;-82
2023/05/24 04:46:13;;;;;;;10.02;4.05;;;;;;;;;;6223994;22;20015;-82
2023/05/24 04:48:39;;;;;;;27.65;4.82;;;;;;;;;;6249306;22;20599;-82
2023/05/24 04:51:05;;;;;;;14.90;4.53;;;;;;;;;;6248650;22;20022;-82
2023/05/24 04:53:32;;;;;;;15.50;4.13;;;;;;;;;;6248921;22;20109;-82
2023/05/24 04:55:58;;;;;;;18.20;4.70;;;;;;;;;;6274582;22;20089;-82
2023/05/24 04:58:24;;;;;;;14.18;4.30;;;;;;;;;;6250216;22;20015;-82
2023/05/24 05:00:50;;;;;;;18.35;4.70;;;;;;;;;;6250849;22;20019;-82
2023/05/24 05:03:16;;;;;;;19.85;5.28;;;;;;;;;;6276486;22;20452;-82
2023/05/24 05:05:43;;;;;;;18.83;4.10;;;;;;;;;;6276425;22;20506;-82
2023/05/24 05:08:09;;;;;;;18.35;5.13;;;;;;;;;;6276395;22;20028;-82
2023/05/24 05:10:36;;;;;;;19.23;4.57;;;;;;;;;;6276280;22;20016;-83
2023/05/24 05:13:02;;;;;;;14.32;5.40;;;;;;;;;;6276427;22;20022;-83
2023/05/24 05:15:28;;;;;;;27.63;4.07;;;;;;;;;;6250896;22;20023;-82
2023/05/24 05:17:54;;;;;;;12.63;3.88;;;;;;;;;;6276790;22;20016;-82
2023/05/24 05:20:20;;;;;;;13.85;3.75;;;;;;;;;;6250863;22;20047;-82
2023/05/24 05:22:47;;;;;;;12.70;4.57;;;10.90;99.90;;;;;;6276229;22;20015;-82
2023/05/24 05:25:13;;;;;;;17.42;5.15;;;;;;;;;;6276700;22;20024;-82
2023/05/24 05:27:39;;;;;;;15.98;4.43;;;;;;;;;;6276225;22;20051;-82
2023/05/24 05:30:05;;;;;;;12.35;3.97;;;11.10;99.90;;;;;;6276223;22;20334;-82
2023/05/24 05:32:31;;;;;;;16.42;4.88;;;10.90;99.90;;;;;;6250777;22;20016;-81
2023/05/24 05:34:57;;;;;;;17.70;4.35;;;;;;;;;;6277499;22;20061;-82
2023/05/24 05:37:23;;;;;;;14.05;5.13;;;;;;;;;;6276014;22;20016;-82
2023/05/24 05:39:49;;;;;;;17.50;4.97;;;;;;;;;;6276094;22;20085;-82
2023/05/24 05:42:15;;;;;;;23.90;5.18;;;;;;;;;;6250622;22;20011;-81
2023/05/24 05:44:41;;;;;;;13.70;4.10;;;;;;;;;;6226367;22;20345;-81
2023/05/24 05:47:08;;;;;;;11.43;4.50;;;;;;;;;;6276321;22;20018;-81
2023/05/24 05:49:40;;;;;;;26.35;5.10;;;;;;;;;;6251712;22;20043;-81
2023/05/24 05:52:06;;;;;;;31.13;5.25;;;;;;;;;;6275762;22;20065;-82
2023/05/24 05:54:32;;;;;;;14.80;4.68;;;;;;;;;;6225150;22;20023;-82
2023/05/24 05:56:58;;;;;;;21.42;5.07;;;;;;;;;;6276271;22;20016;-82
2023/05/24 05:59:24;;;;;;;14.98;4.47;;;;;;;;;;6276017;22;20449;-82
2023/05/24 06:01:50;;;;;;;15.57;4.18;;;;;;;;;;6275959;22;20015;-81
2023/05/24 06:04:16;;;;;;;13.52;3.58;;;;;;;;;;6275875;22;20019;-83
2023/05/24 06:06:44;;;;;;;13.07;3.75;;;;;;;;;;6250245;22;20012;-84
2023/05/24 06:09:10;;;;;;;9.75;3.83;;;;;;;;;;6275567;22;20453;-84
2023/05/24 06:11:38;;;;;;;16.30;4.22;;;;;;;;;;6275828;22;20012;-83
2023/05/24 06:14:04;;;;;;;15.20;3.40;;;;;;;;;;6250043;22;20026;-82
2023/05/24 06:16:31;;;;;;;19.13;4.68;;;11.00;99.90;;;;;;6275421;22;20470;-82
2023/05/24 06:18:57;;;;;;;20.63;4.75;;;;;;;;;;6250174;22;20133;-83
2023/05/24 06:21:23;;;;;;;14.57;3.85;;;;;;;;;;6250403;22;20098;-82
2023/05/24 06:23:49;;;;;;;9.80;3.80;;;;;;;;;;6250054;22;20031;-83
2023/05/24 06:26:15;;;;;;;13.45;4.07;;;;;;;;;;6275560;22;20016;-83
2023/05/24 06:28:41;;;;;;;14.82;4.13;;;;;;;;;;6250495;22;20020;-84
2023/05/24 06:31:17;;;;;;;17.30;3.58;;;;;;;;;;6250070;22;20092;-86
2023/05/24 06:33:45;;;;;;;13.77;4.05;;;;;;;;;;6275413;22;20023;-85
2023/05/24 06:36:17;;;;;;;11.15;3.45;;;;;;;;;;6275405;22;20091;-85
2023/05/24 06:38:43;;;;;;;12.80;3.65;;;;;;;;;;6249768;22;20522;-85
2023/05/24 06:41:09;;;;;;;11.05;3.65;;;;;;;;;;6249891;22;20372;-84
2023/05/24 06:43:35;;;;;;;9.45;3.80;;;;;;;;;;6275915;22;20016;-86
2023/05/24 06:46:01;;;;;;;13.80;3.78;;;;;;;;;;6250424;22;20082;-84
2023/05/24 06:48:27;;;;;;;15.00;4.15;;;;;;;;;;6250135;22;20424;-84
2023/05/24 06:50:53;;;;;;;12.77;3.80;;;;;;;;;;6249478;22;20019;-84
2023/05/24 06:53:19;;;;;;;12.15;3.53;;;;;;;;;;6275497;22;20077;-84
2023/05/24 06:55:45;;;;;;;8.93;3.50;;;;;;;;;;6249893;22;20086;-87
2023/05/24 07:01:35;;;;;;;12.00;4.18;;;;;;;;;;6276897;22;20079;-84
2023/05/24 07:04:01;;;;;;;12.55;4.22;;;;;;;;;;6249813;22;20094;-83
2023/05/24 07:06:27;;;;;;;15.65;3.95;;;;;;;;;;6275109;22;20023;-83
2023/05/24 07:08:53;;;;;;;12.57;3.58;;;;;;;;;;6275032;22;20345;-82
2023/05/24 07:11:19;;;;;;;13.07;4.32;;;;;;;;;;6249656;22;20539;-84
2023/05/24 07:13:48;;;;;;;19.08;3.70;;;;;;;;;;6249993;22;20018;-84
2023/05/24 07:16:14;;;;;;;10.95;3.95;;;;;;;;;;6250025;22;20029;-85
2023/05/24 07:18:40;;;;;;;24.98;5.80;;;;;;;;;;6274815;22;20467;-83
2023/05/24 07:21:07;;;;;;;11.57;4.18;;;;;;;;;;6249010;22;20020;-84
2023/05/24 07:23:34;;;;;;;17.23;4.00;;;;;;;;;;6275090;22;20031;-84
2023/05/24 07:26:03;;;;;;;13.95;4.35;;;;;;;;;;6275023;22;20016;-83
2023/05/24 07:28:29;;;;;;;14.80;4.15;;;;;;;;;;6224892;22;20020;-83
2023/05/24 07:30:54;;;;;;;17.27;3.95;;;11.80;99.90;;;;;;6274800;22;20093;-83
2023/05/24 07:33:21;;;;;;;14.40;4.15;;;;;;;;;;6274960;22;20019;-84
2023/05/24 07:35:50;;;;;;;13.93;4.43;;;;;;;;;;6275235;22;20019;-83
2023/05/24 07:38:19;;;;;;;11.88;4.18;;;;;;;;;;6275113;22;20015;-84
2023/05/24 07:40:46;;;;;;;19.10;4.25;;;;;;;;;;6249769;22;20060;-83
2023/05/24 07:43:12;;;;;;;12.63;4.15;;;;;;;;;;6274841;22;20352;-83
2023/05/24 07:45:38;;;;;;;13.30;3.78;;;;;;;;;;6275205;22;20016;-83
2023/05/24 07:48:04;;;;;;;18.00;4.22;;;;;;;;;;6249276;22;20015;-84
2023/05/24 07:50:30;;;;;;;16.77;3.83;;;;;;;;;;6223769;22;20016;-83
2023/05/24 07:52:57;;;;;;;14.20;3.72;;;;;;;;;;6249592;22;20023;-84
2023/05/24 07:55:23;;;;;;;11.27;2.83;;;;;;;;;;6249181;22;20023;-85
2023/05/24 07:57:49;;;;;;;15.40;4.93;;;;;;;;;;6249362;22;20016;-84
2023/05/24 08:00:16;;;;;;;11.10;2.53;;;;;;;;;;6223998;22;20023;-84
2023/05/24 08:02:45;;;;;;;8.23;3.35;;;;;;;;;;6249593;22;20455;-85
2023/05/24 08:05:12;;;;;;;6.10;2.53;;;;;;;;;;6275492;22;20332;-85
2023/05/24 08:07:39;;;;;;;9.07;2.97;;;;;;;;;;6249604;22;20023;-85
2023/05/24 08:10:06;;;;;;;2.97;2.33;;;;;;;;;;6224649;22;20106;-83
2023/05/24 08:12:32;;;;;;;10.98;3.20;;;;;;;;;;6274883;22;20023;-84
2023/05/24 08:14:58;;;;;;;12.90;3.67;;;;;;;;;;6249166;22;20019;-85
2023/05/24 08:17:24;;;;;;;12.23;3.92;;;;;;;;;;6274967;22;20318;-83
2023/05/24 08:19:50;;;;;;;15.00;4.72;;;;;;;;;;6249224;22;20027;-85
2023/05/24 08:22:16;;;;;;;10.45;3.63;;;;;;;;;;6249781;22;20011;-89
2023/05/24 08:24:42;;;;;;;9.10;2.72;;;;;;;;;;6249652;22;20023;-89
2023/05/24 08:27:08;;;;;;;9.18;3.90;;;;;;;;;;6250424;22;20100;-87
2023/05/24 08:29:37;;;;;;;7.07;3.28;;;;;;;;;;6277352;22;20047;-87
2023/05/24 08:32:08;;;;;;;9.60;3.30;;;;;;;;;;6249822;22;20023;-87
2023/05/24 08:34:35;;;;;;;9.68;4.20;;;;;;;;;;6277235;22;20016;-89
2023/05/24 08:37:02;;;;;;;11.18;3.85;;;;;;;;;;6278591;22;20062;-88
2023/05/24 08:39:28;;;;;;;9.73;3.35;;;;;;;;;;6279368;22;20016;-87
2023/05/24 08:41:54;;;;;;;10.43;3.72;;;;;;;;;;6280114;22;20012;-90
2023/05/24 08:44:22;;;;;;;6.72;2.88;;;12.80;99.90;;;;;;6278248;22;20016;-92
2023/05/24 08:46:48;;;;;;;8.77;3.05;;;;;;;;;;6280096;22;20023;-89
2023/05/24 08:49:15;;;;;;;4.93;2.85;;;;;;;;;;6279477;22;20012;-92
2023/05/24 08:51:43;;;;;;;9.93;2.65;;;13.00;99.90;;;;;;6277786;22;20077;-84
2023/05/24 08:54:13;;;;;;;9.23;2.97;;;;;;;;;;6276401;22;20016;-83
2023/05/24 08:56:40;;;;;;;5.55;3.20;;;;;;;;;;6276480;22;20012;-82
2023/05/24 08:59:10;;;;;;;10.70;3.40;;;13.10;99.90;;;;;;6276583;22;20083;-85
2023/05/24 09:01:39;;;;;;;10.75;3.78;;;13.20;99.90;;;;;;6276576;22;20016;-85
2023/05/24 09:04:06;;;;;;;7.47;2.58;;;;;;;;;;6276442;22;20007;-84
2023/05/24 09:06:32;;;;;;;9.10;2.30;;;13.40;99.90;;;;;;6251557;22;20046;-82
2023/05/24 09:09:01;;;;;;;7.35;2.97;;;13.30;99.90;;;;;;6277056;22;20016;-83
2023/05/24 09:11:28;;;;;;;6.93;3.03;;;13.40;99.90;;;;;;6276593;22;20082;-83
2023/05/24 09:13:55;;;;;;;8.90;2.30;;;13.30;99.90;;;;;;6276382;22;20050;-83
2023/05/24 09:16:21;;;;;;;5.30;3.13;;;;;;;;;;6250729;22;20081;-84
2023/05/24 09:18:48;;;;;;;10.93;3.00;;;;;;;;;;6276398;22;20319;-86
2023/05/24 09:21:19;;;;;;;8.13;3.17;;;;;;;;;;6276174;22;20016;-83
2023/05/24 09:23:45;;;;;;;7.40;2.33;;;;;;;;;;6276842;22;20027;-82
2023/05/24 09:26:12;;;;;;;14.00;3.42;;;;;;;;;;6278265;22;20016;-83
2023/05/24 09:28:40;;;;;;;10.90;3.15;;;;;;;;;;6276068;22;20077;-85
2023/05/24 09:31:07;;;;;;;7.75;3.05;;;;;;;;;;6276468;22;20019;-82
2023/05/24 09:33:33;;;;;;;7.53;3.15;;;13.30;99.90;;;;;;6250445;22;20019;-83
2023/05/24 09:36:01;;;;;;;8.85;3.17;;;13.60;99.90;;;;;;6276532;22;20444;-84
2023/05/24 09:38:28;;;;;;;13.52;3.25;;;;;;;;;;6275691;22;20060;-85
2023/05/24 09:41:01;;;;;;;4.57;2.22;;;14.00;99.90;;;;;;6276167;22;20026;-82
2023/05/24 09:43:29;;;;;;;4.88;2.33;;;;;;;;;;6274317;22;20022;-83
2023/05/24 09:45:56;;;;;;;5.80;2.72;;;;;;;;;;6225944;22;20094;-82
2023/05/24 09:48:23;;;;;;;8.20;2.50;;;;;;;;;;6250261;22;20061;-83
2023/05/24 09:51:00;;;;;;;10.15;3.17;;;;;;;;;;6225839;22;20016;-83
2023/05/24 09:53:26;;;;;;;8.52;2.60;;;;;;;;;;6251440;22;20015;-85
2023/05/24 09:55:53;;;;;;;7.38;2.67;;;;;;;;;;6226434;22;20023;-85
2023/05/24 09:58:20;;;;;;;5.47;1.92;;;;;;;;;;6277974;22;20022;-85
2023/05/24 10:00:47;;;;;;;6.03;2.55;;;;;;;;;;6276695;22;20051;-84
2023/05/24 10:03:13;;;;;;;9.13;3.08;;;;;;;;;;6251327;22;20018;-85
2023/05/24 10:05:47;;;;;;;9.93;3.85;;;;;;;;;;6276409;22;20094;-83
2023/05/24 10:08:27;;;;;;;;;;;;;;;;;;;;;
2023/05/24 10:10:57;;;;;;;9.15;3.13;;;;;;;;;;6277548;22;20757;-84
2023/05/24 10:13:24;;;;;;;7.38;3.00;;;;;;;;;;6250982;22;20015;-84
2023/05/24 10:15:50;;;;;;;12.27;3.63;;;;;;;;;;6275956;22;20023;-83
2023/05/24 10:18:17;;;;;;;6.20;3.30;;;;;;;;;;6276180;22;20039;-86
2023/05/24 10:20:44;;;;;;;11.80;3.00;;;;;;;;;;6225512;22;20019;-85
2023/05/24 10:23:10;;;;;;;9.55;3.60;;;;;;;;;;6250604;22;20405;-85
2023/05/24 10:26:06;;;;;;;10.40;4.47;;;14.30;99.90;;;;;;6277915;22;20057;-86
2023/05/24 10:28:42;;;;;;;13.90;3.47;;;;;;;;;;6276452;22;20015;-86
2023/05/24 10:31:11;;;;;;;10.23;3.75;;;;;;;;;;6277049;22;20086;-82
2023/05/24 10:33:40;;;;;;;12.55;4.40;;;;;;;;;;6283256;22;20059;-86
2023/05/24 10:36:09;;;;;;;14.98;3.55;;;14.70;99.90;;;;;;6282821;22;20027;-80
2023/05/24 10:38:38;;;;;;;13.80;3.67;;;14.80;99.90;;;;;;6293750;22;20448;-81
2023/05/24 10:41:06;;;;;;;13.88;3.10;;;;;;;;;;6289798;22;20050;-82
2023/05/24 10:47:27;;;;;;;6.18;2.80;;;14.80;99.90;;;;;;6287075;22;20340;-84
2023/05/24 10:49:58;;;;;;;5.22;2.65;;;14.90;99.90;;;;;;6290001;22;20145;-92
2023/05/24 10:52:36;;;;;;;6.97;3.33;;;;;;;;;;6251640;22;20047;-92
2023/05/24 10:55:04;;;;;;;8.93;3.38;;;14.70;99.90;;;;;;6277383;22;20031;-91
2023/05/24 10:57:31;;;;;;;9.15;3.95;;;;;;;;;;6250855;22;20018;-92
2023/05/24 11:00:29;;;;;;;10.55;3.25;;;14.90;99.90;;;;;;6275098;22;20038;-87
2023/05/24 11:03:07;;;;;;;10.88;2.72;;;14.90;99.90;;;;;;6275579;22;20015;-90
2023/05/24 11:05:45;;;;;;;10.45;2.92;;;14.60;99.90;;;;;;6275012;22;20122;-82
2023/05/24 11:08:24;;;;;;;7.20;3.15;;;;;;;;;;6277059;22;20401;-86
2023/05/24 11:11:03;;;;;;;8.90;3.40;;;;;;;;;;6249849;22;20042;-82
2023/05/24 11:13:32;;;;;;;7.50;2.72;;;14.90;99.90;;;;;;6251062;22;20475;-88
2023/05/24 11:16:02;;;;;;;10.35;3.38;;;;;;;;;;6251985;22;20016;-90
2023/05/24 11:18:28;;;;;;;7.47;2.97;;;;;;;;;;6277201;22;20065;-89
2023/05/24 11:20:55;;;;;;;9.77;3.33;;;14.90;99.90;;;;;;6251507;22;20026;-91
2023/05/24 11:23:22;;;;;;;8.13;2.97;;;;;;;;;;6252086;22;20069;-88
2023/05/24 11:25:48;;;;;;;12.20;3.40;;;;;;;;;;6251996;22;20016;-87
2023/05/24 11:28:15;;;;;;;9.85;3.63;;;;;;;;;;6251729;22;20090;-91
2023/05/24 11:30:42;;;;;;;17.85;3.88;;;;;;;;;;6276639;22;20091;-88
2023/05/24 11:33:17;;;;;;;12.30;4.38;;;;;;;;;;6279313;22;20046;-88
2023/05/24 11:35:44;;;;;;;8.90;3.85;;;;;;;;;;6274666;22;20077;-82
2023/05/24 11:38:14;;;;;;;9.93;3.40;;;15.00;99.90;;;;;;6249519;22;20011;-81
2023/05/24 11:40:45;;;;;;;5.53;2.92;;;14.90;99.90;;;;;;6249452;22;20441;-83
2023/05/24 11:43:15;;;;;;;9.43;3.65;;;;;;;;;;6249826;22;20406;-85
2023/05/24 11:45:42;;;;;;;10.63;3.65;;;;;;;;;;6251303;22;20015;-83
2023/05/24 11:48:09;;;;;;;9.88;3.47;;;15.00;99.90;;;;;;6249582;22;20475;-82
2023/05/24 11:50:42;;;;;;;16.02;3.30;;;14.80;99.90;;;;;;6250121;22;20039;-83
2023/05/24 11:53:12;;;;;;;;;;;15.10;99.90;;;;;;6276410;22;20011;-86
2023/05/24 11:55:41;;;;;;;14.68;3.17;;;;;;;;;;6252961;22;20009;-87
2023/05/24 11:58:11;;;;;;;12.88;3.80;;;;;;;;;;6224817;22;20409;-83
2023/05/24 12:00:37;;;;;;;15.07;3.83;;;;;;;;;;6249339;22;20011;-82
2023/05/24 12:03:06;;;;;;;11.73;4.00;;;;;;;;;;6249123;22;20094;-83
2023/05/24 12:05:33;;;;;;;12.95;3.55;;;;;;;;;;6249356;22;20019;-83
2023/05/24 12:08:11;;;;;;;10.77;3.22;;;14.80;99.90;;;;;;6250804;22;20503;-84
2023/05/24 12:10:38;;;;;;;9.77;3.45;;;14.70;99.90;;;;;;6277164;22;20094;-83
2023/05/24 12:13:06;;;;;;;7.07;3.10;;;15.10;99.90;;;;;;6251779;22;20445;-83
2023/05/24 12:15:32;;;;;;;5.95;2.58;;;15.10;99.90;;;;;;6251330;22;20055;-83
2023/05/24 12:17:58;;;;;;;13.65;3.33;;;15.20;99.90;;;;;;6251286;22;20011;-83
2023/05/24 12:20:27;;;;;;;11.52;4.38;;;15.10;99.90;;;;;;6276526;22;20019;-83
2023/05/24 12:22:54;;;;;;;11.30;4.00;;;14.90;99.90;;;;;;6251322;22;20061;-82
2023/05/24 12:25:21;;;;;;;10.30;3.35;;;14.80;99.90;;;;;;6251382;22;20078;-81
2023/05/24 12:27:55;;;;;;;11.55;3.25;;;15.10;99.90;;;;;;6276871;22;20019;-82
2023/05/24 12:30:21;;;;;;;;;;;;;;;;;;6277182;22;20413;-82
2023/05/24 12:32:47;;;;;;;10.00;2.83;;;15.20;99.90;;;;;;6251156;22;19915;-83
2023/05/24 12:35:14;;;;;;;8.05;2.58;;;;;;;;;;6276624;22;20456;-82
2023/05/24 12:37:40;;;;;;;8.13;2.78;;;;;;;;;;6251401;22;20467;-83
2023/05/24 12:40:20;;;;;;;8.98;2.75;;;15.10;99.90;;;;;;6251285;22;20011;-82
2023/05/24 12:42:57;;;;;;;7.88;2.83;;;15.30;99.90;;;;;;6250803;22;20472;-84
2023/05/24 12:45:24;;;;;;;5.90;2.58;;;15.00;99.90;;;;;;6276812;22;20023;-83
2023/05/24 12:47:58;;;;;;;6.95;2.83;;;15.20;99.90;;;;;;6276723;22;20483;-81
2023/05/24 12:50:24;;;;;;;;;;;15.20;99.90;;;;;;6227293;22;20058;-85
2023/05/24 12:52:51;;;;;;;7.55;3.40;;;15.00;99.90;;;;;;6251523;22;20324;-85
2023/05/24 12:55:27;;;;;;;4.53;2.78;;;15.00;99.90;;;;;;6251313;22;20011;-83
2023/05/24 12:57:55;;;;;;;8.65;3.70;;;15.10;99.90;;;;;;6276195;22;20022;-82
2023/05/24 13:00:25;;;;;;;7.95;3.03;;;14.90;99.90;;;;;;6276627;22;20012;-82
2023/05/24 13:02:54;;;;;;;9.10;3.10;;;;;;;;;;6251939;22;20016;-81
2023/05/24 13:05:23;;;;;;;9.73;3.15;;;;;;;;;;6251036;22;20015;-82
2023/05/24 13:07:50;;;;;;;10.05;3.25;;;14.90;99.90;;;;;;6251321;22;20020;-82
2023/05/24 13:10:16;;;;;;;5.90;2.75;;;15.00;99.90;;;;;;6200958;22;20027;-81
2023/05/24 13:12:42;;;;;;;7.35;2.67;;;;;;;;;;6250762;22;20238;-82
2023/05/24 13:15:08;;;;;;;8.95;2.90;;;15.30;99.90;;;;;;6250864;22;20121;-82
2023/05/24 13:17:35;;;;;;;8.90;3.00;;;;;;;;;;6276400;22;20341;-83
2023/05/24 13:20:05;;;;;;;5.78;3.20;;;15.30;99.90;;;;;;6225150;22;20452;-83
2023/05/24 13:22:31;;;;;;;11.30;3.70;;;15.40;99.90;;;;;;6250351;22;20011;-83
2023/05/24 13:24:57;;;;;;;7.93;2.58;;;15.50;99.90;;;;;;6275140;22;20062;-83
2023/05/24 13:27:23;;;;;;;11.10;2.90;;;;;;;;;;6225012;22;20026;-82
2023/05/24 13:29:49;;;;;;;9.18;2.90;;;15.70;99.90;;;;;;6225027;22;20016;-82
2023/05/24 13:32:15;;;;;;;10.10;2.92;;;15.50;99.90;;;;;;6275537;22;20027;-81
2023/05/24 13:34:42;;;;;;;12.48;3.65;;;;;;;;;;6224762;22;20019;-81
2023/05/24 13:37:07;;;;;;;6.65;2.50;;;16.00;99.90;;;;;;6249932;22;20069;-83
2023/05/24 13:39:34;;;;;;;8.43;3.22;;;;;;;;;;6275719;22;20015;-83
2023/05/24 13:42:00;;;;;;;10.63;2.72;;;;;;;;;;6249737;22;20023;-83
2023/05/24 13:44:27;;;;;;;12.13;2.45;;;;;;;;;;6275531;22;20502;-84
2023/05/24 13:46:53;;;;;;;9.60;3.30;;;16.10;99.90;;;;;;6249914;22;20483;-82
2023/05/24 13:49:19;;;;;;;7.55;2.90;;;16.20;99.90;;;;;;6250320;22;20012;-82
2023/05/24 13:51:45;;;;;;;13.63;4.25;;;16.10;99.90;;;;;;6276608;22;20022;-84
2023/05/24 13:54:17;;;;;;;5.05;2.38;;;;;;;;;;6252177;22;20038;-85
2023/05/24 13:56:44;;;;;;;8.40;2.85;;;;;;;;;;6226954;22;20352;-84
2023/05/24 13:59:13;;;;;;;6.85;2.85;;;;;;;;;;6250667;22;20476;-85
2023/05/24 14:01:40;;;;;;;9.73;3.10;;;;;;;;;;6250021;22;20068;-84
2023/05/24 14:04:06;;;;;;;4.82;2.35;;;;;;;;;;6275805;22;20027;-82
2023/05/24 14:06:38;;;;;;;6.10;2.55;;;;;;;;;;6250034;22;20019;-81
2023/05/24 14:09:07;;;;;;;6.22;1.90;;;16.10;99.90;;;;;;6249737;22;20074;-82
2023/05/24 14:11:33;;;;;;;7.57;3.03;;;;;;;;;;6250003;22;20012;-82
2023/05/24 14:14:00;;;;;;;9.52;3.00;;;16.20;99.90;;;;;;6250080;22;20094;-82
2023/05/24 14:16:29;;;;;;;5.75;3.00;;;16.20;99.90;;;;;;6275246;22;20365;-82
2023/05/24 14:18:55;;;;;;;12.27;3.58;;;16.60;99.90;;;;;;6224568;22;20357;-82